Cape Coral, FL

9:09 PM EDT on August 22, 2014 (GMT -0400)
Veterans / Santa Barbara | Change Station
CLOSE
Current Station
Personal Weather Station
Location: Cape Coral, FL
Elevation: 15 ft
Nearby Weather Stations

Elev 15 ft 26.62 °N, 81.97 °W | Updated 7 minutes ago

Overcast
Overcast
81.2 °F
Feels Like 86 °F
N
1.0
Wind Variable Wind from SE
Gusts 5.0 mph

Today
High -- | Low -- °F
--% Chance of Precip.
Yesterday
High -- | Low -- °F
Precip. -- in
7:03 AM 7:57 PM
Waning Crescent, 6% visible
Pressure 30.03 in
Visibility 10.0 miles
Clouds Few 4700 ft
Scattered Clouds 5500 ft
Heat Index 86 °F
Dew Point 74 °F
Humidity 78%
Rainfall 0.00 in
Snow Depth Not available.
UV 0 out of 12
Pollen 4.60 out of 12
Air Quality Not available.
Flu Activity Not available.
SPECI KFMY 230101Z VRB05KT 10SM TS FEW047 SCT055 28/22 A3003 RMK AO2 LTG DSNT ALQDS TSB0055 T02830222

More Conditions Fewer Conditions

Pressure 30.03 in
Visibility 10.0 miles
Clouds Few 4700 ft
Scattered Clouds 5500 ft
Heat Index 86 °F
Dew Point 74 °F
Humidity 78%
Rainfall 0.00 in
Snow Depth Not available.
UV 0 out of 12
Pollen 4.60 out of 12
Air Quality Not available.
Flu Activity Not available.
SPECI KFMY 230101Z VRB05KT 10SM TS FEW047 SCT055 28/22 A3003 RMK AO2 LTG DSNT ALQDS TSB0055 T02830222

More Conditions Fewer Conditions

10-Day Weather Forecast

Almanac

Astronomy

Aug. 22, 2014 Rise Set
Actual Time 7:03 AM EDT 7:57 PM EDT
Civil Twilight 6:39 AM EDT 8:21 PM EDT
Nautical Twilight 6:10 AM EDT 8:49 PM EDT
Astronomical Twilight 5:41 AM EDT 9:18 PM EDT
Moon 4:31 AM EDT (8/22) 6:00 PM EDT (8/22)
Length of Visible Light 13h 42m
Length of Day
12h 54m
Tomorrow will be 1m 26s shorter.
Waning Crescent, 6% of the Moon is Illuminated
Today
Waning Crescent
Aug 25
New
Sep 2
First Quarter
Sep 8
Full
Sep 15
Last Quarter

Today's Extremes

State Highs State Lows

Community

WunderPhotos

Upload Photos

1,746,336 photos uploaded!

WunderBlogs® & News

Nearby

Snow Depth

Station Depth Elevation
No new snow has been reported.

Earthquake Activity

City Distance Mag. Time & Date
No recent earthquake activity has been reported nearby.
Minimum magnitude displayed is 2.5.

Coastal Water Temperatures

Place Temperature
No Stations Reporting

Nearby Weather Stations